createdAt,value
2023-03-14T00:00:06.792Z,101000.56
2023-03-14T00:02:34.737Z,101004.31
2023-03-14T00:05:03.634Z,101006.81
2023-03-14T00:07:35.008Z,100992.03
2023-03-14T00:10:05.363Z,100994.28
2023-03-14T00:12:34.033Z,100979.16
2023-03-14T00:15:04.553Z,101003.72
2023-03-14T00:17:33.630Z,100996.16
2023-03-14T00:20:05.667Z,100999.56
2023-03-14T00:22:33.683Z,100989.41
2023-03-14T00:25:01.607Z,100977.28
2023-03-14T00:27:29.525Z,100978.41
2023-03-14T00:29:57.513Z,100970.34
2023-03-14T00:32:27.196Z,100970.28
2023-03-14T00:34:55.194Z,100971.63
2023-03-14T00:37:23.173Z,100957.03
2023-03-14T00:39:53.251Z,100949.22
2023-03-14T00:42:21.212Z,100939.69
2023-03-14T00:44:49.120Z,100945.47
2023-03-14T00:47:17.103Z,100937.16
2023-03-14T00:49:46.404Z,100941.34
2023-03-14T00:52:14.322Z,100934.81
2023-03-14T00:54:42.242Z,100929.00
2023-03-14T00:57:10.193Z,100930.47
2023-03-14T00:59:38.118Z,100927.75
2023-03-14T01:02:06.109Z,100930.25
2023-03-14T01:04:34.070Z,100924.94
2023-03-14T01:07:03.390Z,100914.00
2023-03-14T01:09:31.297Z,100923.50
2023-03-14T01:11:59.246Z,100912.47
2023-03-14T01:14:27.267Z,100910.00
2023-03-14T01:16:55.176Z,100897.28
2023-03-14T01:19:23.091Z,100901.56
2023-03-14T01:21:51.029Z,100905.16
2023-03-14T01:24:20.314Z,100895.41
2023-03-14T01:26:48.585Z,100902.34
2023-03-14T01:29:16.519Z,100899.50
2023-03-14T01:31:44.495Z,100901.63
2023-03-14T01:34:12.470Z,100904.97
2023-03-14T01:36:40.386Z,100897.09
2023-03-14T01:39:09.125Z,100895.50
2023-03-14T01:41:38.479Z,100893.19
2023-03-14T01:44:06.761Z,100889.56
2023-03-14T01:46:37.924Z,100890.47
2023-03-14T01:49:21.660Z,100894.81
2023-03-14T01:51:55.401Z,100888.78
2023-03-14T01:54:29.722Z,100896.75
2023-03-14T01:57:02.371Z,100895.84
2023-03-14T01:59:32.533Z,100884.09
2023-03-14T02:02:01.301Z,100883.72
2023-03-14T02:04:32.178Z,100894.25
2023-03-14T02:07:05.156Z,100884.84
2023-03-14T02:09:33.299Z,100883.91
2023-03-14T02:12:02.800Z,100883.72
2023-03-14T02:14:34.515Z,100887.19
2023-03-14T02:17:03.722Z,100881.78
2023-03-14T02:19:46.541Z,100879.28
2023-03-14T02:22:17.457Z,100889.47
2023-03-14T02:24:51.838Z,100896.78
2023-03-14T02:27:22.078Z,100900.78
2023-03-14T02:29:54.563Z,100898.44
2023-03-14T02:32:24.070Z,100899.69
2023-03-14T02:34:56.160Z,100891.97
2023-03-14T02:37:28.065Z,100894.41
2023-03-14T02:39:56.204Z,100896.50
2023-03-14T02:42:25.634Z,100899.56
2023-03-14T02:44:55.922Z,100901.88
2023-03-14T02:47:29.625Z,100903.88
2023-03-14T02:50:03.072Z,100906.25
2023-03-14T02:52:31.076Z,100912.09
2023-03-14T02:54:59.023Z,100916.00
2023-03-14T02:57:28.429Z,100913.28
2023-03-14T02:59:56.328Z,100913.72
2023-03-14T03:02:24.235Z,100920.53
2023-03-14T03:04:52.147Z,100914.78
2023-03-14T03:07:20.220Z,100915.72
2023-03-14T03:09:48.240Z,100900.91
2023-03-14T03:12:16.165Z,100898.44
2023-03-14T03:14:45.436Z,100897.34
2023-03-14T03:17:13.341Z,100890.75
2023-03-14T03:19:41.306Z,100884.66
2023-03-14T03:22:09.482Z,100881.34
2023-03-14T03:24:37.638Z,100885.38
2023-03-14T03:27:05.527Z,100881.44
2023-03-14T03:29:33.457Z,100892.38
2023-03-14T03:32:02.821Z,100897.13
2023-03-14T03:34:30.780Z,100882.84
2023-03-14T03:36:59.057Z,100891.97
2023-03-14T03:39:26.987Z,100892.69
2023-03-14T03:41:54.915Z,100884.53
2023-03-14T03:44:23.061Z,100876.06
2023-03-14T03:46:50.959Z,100867.41
2023-03-14T03:49:20.237Z,100868.16
2023-03-14T03:51:48.247Z,100858.13
2023-03-14T03:54:16.160Z,100847.81
2023-03-14T03:56:44.076Z,100848.59
2023-03-14T03:59:11.985Z,100847.59
2023-03-14T04:01:39.910Z,100844.94
2023-03-14T04:04:08.389Z,100840.53
2023-03-14T04:06:38.985Z,100833.06
2023-03-14T04:09:06.965Z,100829.84
2023-03-14T04:11:34.996Z,100831.38
2023-03-14T04:14:02.968Z,100837.06
2023-03-14T04:16:32.479Z,100826.00
2023-03-14T04:19:00.447Z,100824.38
2023-03-14T04:21:28.361Z,100828.44
2023-03-14T04:23:57.670Z,100828.34
2023-03-14T04:26:25.674Z,100813.06
2023-03-14T04:28:53.590Z,100818.22
2023-03-14T04:31:23.482Z,100812.00
2023-03-14T04:33:51.500Z,100811.84
2023-03-14T04:36:19.418Z,100807.50
2023-03-14T04:38:47.312Z,100808.47
2023-03-14T04:41:16.647Z,100806.69
2023-03-14T04:43:44.586Z,100802.75
2023-03-14T04:46:12.539Z,100796.81
2023-03-14T04:48:40.456Z,100795.75
2023-03-14T04:51:09.274Z,100794.91
2023-03-14T04:53:38.196Z,100787.06
2023-03-14T04:56:07.105Z,100788.63
2023-03-14T04:58:36.385Z,100789.25
2023-03-14T05:01:04.969Z,100801.03
2023-03-14T05:03:32.874Z,100797.75
2023-03-14T05:06:01.854Z,100806.00
2023-03-14T05:08:29.784Z,100813.53
2023-03-14T05:10:58.871Z,100816.44
2023-03-14T05:13:27.253Z,100817.66
2023-03-14T05:16:05.131Z,100820.78
2023-03-14T05:18:33.094Z,100823.78
2023-03-14T05:21:01.010Z,100827.53
2023-03-14T05:23:29.001Z,100818.41
2023-03-14T05:25:56.909Z,100806.28
2023-03-14T05:28:24.897Z,100820.22
2023-03-14T05:30:52.827Z,100807.69
2023-03-14T05:33:22.107Z,100811.47
2023-03-14T05:35:50.076Z,100808.78
2023-03-14T05:38:18.020Z,100818.91
2023-03-14T05:40:47.175Z,100816.91
2023-03-14T05:43:15.833Z,100816.34
2023-03-14T05:45:44.564Z,100821.06
2023-03-14T05:48:12.733Z,100820.00
2023-03-14T05:50:42.046Z,100813.34
2023-03-14T05:53:10.011Z,100816.59
2023-03-14T05:55:37.949Z,100806.22
2023-03-14T05:58:05.901Z,100806.78
2023-03-14T06:00:33.868Z,100803.09
2023-03-14T06:03:01.888Z,100800.97
2023-03-14T06:05:29.845Z,100803.13
2023-03-14T06:07:59.154Z,100787.72
2023-03-14T06:10:27.080Z,100793.03
2023-03-14T06:12:55.026Z,100790.00
2023-03-14T06:15:23.042Z,100781.25
2023-03-14T06:17:50.979Z,100790.13
2023-03-14T06:20:19.502Z,100786.41
2023-03-14T06:22:47.407Z,100782.59
2023-03-14T06:25:16.910Z,100783.00
2023-03-14T06:27:44.793Z,100786.59
2023-03-14T06:30:13.466Z,100792.72
2023-03-14T06:32:41.383Z,100791.31
2023-03-14T06:35:10.106Z,100793.22
2023-03-14T06:37:38.024Z,100794.22
2023-03-14T06:40:08.266Z,100790.66
2023-03-14T06:42:37.569Z,100793.66
2023-03-14T06:45:06.309Z,100799.50
2023-03-14T06:47:34.223Z,100807.69
2023-03-14T06:50:02.144Z,100805.09
2023-03-14T06:52:30.064Z,100807.25
2023-03-14T06:54:58.077Z,100801.47
2023-03-14T06:57:26.088Z,100808.41
2023-03-14T06:59:55.576Z,100798.03
2023-03-14T07:02:36.042Z,100805.22
2023-03-14T07:05:11.315Z,100788.13
2023-03-14T07:07:39.227Z,100784.00
2023-03-14T07:10:09.856Z,100780.47
2023-03-14T07:12:37.999Z,100786.19
2023-03-14T07:15:18.130Z,100774.59
2023-03-14T07:17:46.378Z,100766.41
2023-03-14T07:20:14.430Z,100761.38
2023-03-14T07:22:42.400Z,100769.66
2023-03-14T07:25:13.177Z,100767.41
2023-03-14T07:27:41.331Z,100761.22
2023-03-14T07:30:12.256Z,100754.00
2023-03-14T07:32:40.247Z,100758.56
2023-03-14T07:35:09.920Z,100752.56
2023-03-14T07:37:37.864Z,100755.97
2023-03-14T07:40:08.177Z,100754.84
2023-03-14T07:42:36.243Z,100758.38
2023-03-14T07:45:04.535Z,100756.03
2023-03-14T07:47:33.876Z,100747.19
2023-03-14T07:50:01.797Z,100749.63
2023-03-14T07:52:30.117Z,100746.16
2023-03-14T07:54:58.032Z,100749.97
2023-03-14T07:57:26.051Z,100747.56
2023-03-14T07:59:54.056Z,100740.28
2023-03-14T08:02:23.616Z,100751.59
2023-03-14T08:04:53.145Z,100734.13
2023-03-14T08:07:21.088Z,100737.03
2023-03-14T08:09:49.037Z,100740.41
2023-03-14T08:12:17.087Z,100732.50
2023-03-14T08:14:45.046Z,100728.22
2023-03-14T08:17:12.942Z,100700.13
2023-03-14T08:19:40.844Z,100724.09
2023-03-14T08:22:10.167Z,100724.53
2023-03-14T08:24:38.126Z,100721.50
2023-03-14T08:27:07.386Z,100715.59
2023-03-14T08:29:36.708Z,100714.00
2023-03-14T08:32:04.823Z,100708.59
2023-03-14T08:34:32.753Z,100718.75
2023-03-14T08:37:00.854Z,100715.50
2023-03-14T08:39:30.177Z,100718.47
2023-03-14T08:41:58.063Z,100713.22
2023-03-14T08:44:26.104Z,100702.22
2023-03-14T08:46:54.184Z,100688.34
2023-03-14T08:49:22.178Z,100701.19
2023-03-14T08:51:50.116Z,100686.06
2023-03-14T08:54:18.095Z,100678.50
2023-03-14T08:56:47.385Z,100684.44
2023-03-14T08:59:15.300Z,100671.72
2023-03-14T09:01:43.183Z,100667.25
2023-03-14T09:04:11.181Z,100667.81
2023-03-14T09:06:39.104Z,100653.06
2023-03-14T09:09:07.108Z,100656.91
2023-03-14T09:11:36.319Z,100630.09
2023-03-14T09:14:05.659Z,100645.25
2023-03-14T09:16:35.040Z,100641.75
2023-03-14T09:19:02.974Z,100638.75
2023-03-14T09:21:30.909Z,100632.63
2023-03-14T09:23:58.890Z,100621.94
2023-03-14T09:26:26.870Z,100621.22
2023-03-14T09:28:55.539Z,100607.72
2023-03-14T09:31:26.357Z,100616.13
2023-03-14T09:33:54.273Z,100610.59
2023-03-14T09:36:22.200Z,100597.56
2023-03-14T09:38:50.284Z,100607.13
2023-03-14T09:41:23.097Z,100600.00
2023-03-14T09:43:55.716Z,100598.78
2023-03-14T09:46:24.082Z,100596.66
2023-03-14T09:48:53.908Z,100584.31
2023-03-14T09:51:24.536Z,100586.59
2023-03-14T09:53:52.778Z,100574.22
2023-03-14T09:56:22.879Z,100569.66
2023-03-14T09:58:55.898Z,100565.47
2023-03-14T10:01:27.138Z,100557.22
2023-03-14T10:03:59.007Z,100558.28
2023-03-14T10:06:30.267Z,100547.78
2023-03-14T10:08:59.013Z,100538.75
2023-03-14T10:11:27.139Z,100537.75
2023-03-14T10:14:07.734Z,100534.81
2023-03-14T10:16:37.730Z,100527.75
2023-03-14T10:19:11.360Z,100518.38
2023-03-14T10:21:40.740Z,100520.50
2023-03-14T10:24:28.811Z,100528.81
2023-03-14T10:27:02.398Z,100520.69
2023-03-14T10:29:31.699Z,100514.66
2023-03-14T10:32:03.084Z,100512.84
2023-03-14T10:34:34.305Z,100497.56
2023-03-14T10:37:10.101Z,100500.44
2023-03-14T10:39:47.505Z,100496.91
2023-03-14T10:42:21.791Z,100481.44
2023-03-14T10:44:56.926Z,100478.91
2023-03-14T10:47:27.555Z,100474.09
2023-03-14T10:49:57.534Z,100460.25
2023-03-14T10:52:31.300Z,100446.22
2023-03-14T10:55:14.111Z,100441.13
2023-03-14T10:57:42.164Z,100443.69
2023-03-14T11:00:18.648Z,100433.94
2023-03-14T11:03:10.806Z,100416.22
2023-03-14T11:05:45.979Z,100419.88
2023-03-14T11:08:20.352Z,100412.00
2023-03-14T11:10:51.477Z,100406.69
2023-03-14T11:13:26.476Z,100402.22
2023-03-14T11:16:05.821Z,100400.31
2023-03-14T11:18:59.556Z,100390.91
2023-03-14T11:21:35.099Z,100377.78
2023-03-14T11:24:20.963Z,100364.94
2023-03-14T11:26:52.312Z,100366.31
2023-03-14T11:29:25.602Z,100359.56
2023-03-14T11:31:57.490Z,100354.84
2023-03-14T11:34:30.667Z,100347.50
2023-03-14T11:37:03.194Z,100337.41
2023-03-14T11:39:39.986Z,100327.72
2023-03-14T11:42:15.042Z,100318.53
2023-03-14T11:44:45.649Z,100306.69
2023-03-14T11:47:19.508Z,100294.72
2023-03-14T11:49:50.393Z,100292.94
2023-03-14T11:52:25.051Z,100285.09
2023-03-14T11:54:58.597Z,100272.78
2023-03-14T11:57:27.000Z,100274.88
2023-03-14T12:00:00.387Z,100265.22
2023-03-14T12:02:38.020Z,100260.66
2023-03-14T12:05:40.808Z,100247.34
2023-03-14T12:08:45.307Z,100240.47
2023-03-14T12:11:21.510Z,100222.56
2023-03-14T12:13:51.771Z,100237.97
2023-03-14T12:16:33.656Z,100228.91
2023-03-14T12:19:17.445Z,100226.75
2023-03-14T12:21:50.662Z,100222.00
2023-03-14T12:24:25.213Z,100220.25
2023-03-14T12:26:58.614Z,100209.75
2023-03-14T12:29:27.368Z,100213.53
2023-03-14T12:32:24.695Z,100210.72
2023-03-14T12:34:52.833Z,100215.09
2023-03-14T12:37:34.161Z,100199.78
2023-03-14T12:40:23.291Z,100197.72
2023-03-14T12:43:00.633Z,100193.38
2023-03-14T12:45:31.459Z,100199.22
2023-03-14T12:48:09.256Z,100192.44
2023-03-14T12:50:42.195Z,100194.06
2023-03-14T12:53:49.820Z,100177.28
2023-03-14T12:56:26.145Z,100171.88
2023-03-14T12:59:20.046Z,100167.25
2023-03-14T13:01:55.758Z,100165.16
2023-03-14T13:04:39.058Z,100157.75
2023-03-14T13:07:14.099Z,100151.66
2023-03-14T13:10:03.085Z,100147.56
2023-03-14T13:12:40.054Z,100151.91
2023-03-14T13:15:20.219Z,100136.47
2023-03-14T13:17:50.660Z,100132.81
2023-03-14T13:20:24.173Z,100117.72
2023-03-14T13:22:52.784Z,100125.00
2023-03-14T13:25:22.244Z,100114.19
2023-03-14T13:27:56.925Z,100109.63
2023-03-14T13:30:27.635Z,100110.13
2023-03-14T13:32:56.979Z,100102.63
2023-03-14T13:35:28.405Z,100098.34
2023-03-14T13:38:11.159Z,100090.00
2023-03-14T13:40:40.144Z,100084.53
2023-03-14T13:43:16.971Z,100084.75
2023-03-14T13:45:52.170Z,100077.34
2023-03-14T13:48:20.923Z,100073.97
2023-03-14T13:50:55.021Z,100068.59
2023-03-14T13:53:23.309Z,100060.34
2023-03-14T13:55:51.884Z,100061.47
2023-03-14T13:58:27.635Z,100059.16
2023-03-14T14:01:07.283Z,100046.00
2023-03-14T14:03:40.065Z,100046.38
2023-03-14T14:06:13.128Z,100039.78
2023-03-14T14:08:44.555Z,100041.66
2023-03-14T14:11:18.836Z,100040.06
2023-03-14T14:13:48.465Z,100038.88
2023-03-14T14:16:22.166Z,100034.97
2023-03-14T14:18:50.367Z,100039.84
2023-03-14T14:21:18.425Z,100024.03
2023-03-14T14:23:46.543Z,100018.16
2023-03-14T14:26:18.655Z,100021.03
2023-03-14T14:28:50.443Z,100010.53
2023-03-14T14:31:24.134Z,100018.75
2023-03-14T14:33:59.395Z,99997.00
2023-03-14T14:36:30.730Z,100000.66
2023-03-14T14:39:06.887Z,99994.81
2023-03-14T14:41:37.554Z,99988.03
2023-03-14T14:44:07.247Z,99990.41
2023-03-14T14:46:38.152Z,99989.56
2023-03-14T14:49:11.104Z,99981.97
2023-03-14T14:51:44.279Z,99985.03
2023-03-14T14:54:15.443Z,99977.53
2023-03-14T14:56:49.396Z,99985.56
2023-03-14T14:59:25.930Z,99962.72
2023-03-14T15:01:58.593Z,99981.75
2023-03-14T15:04:26.980Z,99975.41
2023-03-14T15:06:55.124Z,99975.84
2023-03-14T15:09:23.062Z,99962.31
2023-03-14T15:11:51.560Z,99960.72
2023-03-14T15:14:19.474Z,99959.44
2023-03-14T15:16:48.820Z,99943.00
2023-03-14T15:19:25.430Z,99950.28
2023-03-14T15:21:54.538Z,99950.97
2023-03-14T15:24:23.081Z,99946.88
2023-03-14T15:26:51.032Z,99944.66
2023-03-14T15:29:19.070Z,99937.75
2023-03-14T15:31:48.550Z,99938.63
2023-03-14T15:34:17.713Z,99941.81
2023-03-14T15:36:45.650Z,99939.66
2023-03-14T15:39:13.728Z,99939.91
2023-03-14T15:41:41.640Z,99942.38
2023-03-14T15:44:09.565Z,99938.97
2023-03-14T15:46:37.559Z,99935.38
2023-03-14T15:49:07.018Z,99938.16
2023-03-14T15:51:34.964Z,99923.28
2023-03-14T15:54:03.528Z,99935.38
2023-03-14T15:56:32.309Z,99919.13
2023-03-14T15:59:00.627Z,99926.56
2023-03-14T16:01:28.751Z,99928.47
2023-03-14T16:03:56.839Z,99917.41
2023-03-14T16:06:26.218Z,99921.72
2023-03-14T16:08:54.138Z,99922.84
2023-03-14T16:11:23.029Z,99917.72
2023-03-14T16:13:51.280Z,99927.84
2023-03-14T16:16:19.328Z,99921.03
2023-03-14T16:18:47.271Z,99921.81
2023-03-14T16:21:17.197Z,99922.34
2023-03-14T16:23:46.982Z,99915.50
2023-03-14T16:26:17.102Z,99926.81
2023-03-14T16:28:46.144Z,99916.75
2023-03-14T16:31:16.406Z,99912.13
2023-03-14T16:33:44.688Z,99921.00
2023-03-14T16:36:14.981Z,99920.25
2023-03-14T16:38:44.814Z,99928.66
2023-03-14T16:41:15.685Z,99924.31
2023-03-14T16:43:44.764Z,99925.56
2023-03-14T16:46:15.224Z,99922.66
2023-03-14T16:48:43.181Z,99917.59
2023-03-14T16:51:11.366Z,99919.03
2023-03-14T16:53:39.308Z,99911.72
2023-03-14T16:56:08.750Z,99910.19
2023-03-14T16:58:38.835Z,99916.59
2023-03-14T17:01:10.500Z,99913.53
2023-03-14T17:03:39.640Z,99911.88
2023-03-14T17:06:08.541Z,99894.72
2023-03-14T17:08:36.468Z,99910.13
2023-03-14T17:11:04.634Z,99909.63
2023-03-14T17:13:32.558Z,99899.47
2023-03-14T17:16:02.899Z,99901.25
2023-03-14T17:18:32.213Z,99898.66
2023-03-14T17:21:00.680Z,99892.25
2023-03-14T17:23:30.467Z,99886.47
2023-03-14T17:25:58.506Z,99890.25
2023-03-14T17:28:28.242Z,99884.03
2023-03-14T17:31:05.395Z,99887.13
2023-03-14T17:33:33.700Z,99885.56
2023-03-14T17:36:01.900Z,99889.22
2023-03-14T17:38:30.909Z,99885.47
2023-03-14T17:40:58.819Z,99884.50
2023-03-14T17:43:26.869Z,99875.94
2023-03-14T17:46:02.237Z,99883.91
2023-03-14T17:48:31.525Z,99869.81
2023-03-14T17:51:02.077Z,99871.84
2023-03-14T17:53:30.694Z,99866.13
2023-03-14T17:55:59.189Z,99862.34
2023-03-14T17:58:28.311Z,99853.75
2023-03-14T18:00:56.818Z,99864.63
2023-03-14T18:03:24.817Z,99864.88
2023-03-14T18:05:54.156Z,99855.53
2023-03-14T18:08:22.095Z,99868.47
2023-03-14T18:10:54.983Z,99855.63
2023-03-14T18:13:22.927Z,99862.56
2023-03-14T18:15:52.251Z,99866.25
2023-03-14T18:18:21.055Z,99857.13
2023-03-14T18:20:54.628Z,99852.28
2023-03-14T18:23:23.193Z,99854.72
2023-03-14T18:25:51.723Z,99858.06
2023-03-14T18:28:21.135Z,99841.59
2023-03-14T18:30:52.582Z,99841.16
2023-03-14T18:33:22.916Z,99847.91
2023-03-14T18:35:52.408Z,99848.75
2023-03-14T18:38:22.212Z,99847.41
2023-03-14T18:40:50.119Z,99849.81
2023-03-14T18:43:18.020Z,99838.97
2023-03-14T18:45:45.958Z,99841.66
2023-03-14T18:48:13.890Z,99839.31
2023-03-14T18:50:42.948Z,99844.38
2023-03-14T18:53:10.965Z,99850.19
2023-03-14T18:55:40.276Z,99850.72
2023-03-14T18:58:08.718Z,99845.22
2023-03-14T19:00:37.500Z,99850.19
2023-03-14T19:03:05.692Z,99852.66
2023-03-14T19:05:33.642Z,99845.84
2023-03-14T19:08:02.934Z,99843.25
2023-03-14T19:10:33.473Z,99846.41
2023-03-14T19:13:02.777Z,99838.72
2023-03-14T19:15:30.765Z,99838.72
2023-03-14T19:17:58.727Z,99833.41
2023-03-14T19:20:26.682Z,99818.09
2023-03-14T19:22:58.313Z,99817.06
2023-03-14T19:25:26.391Z,99828.44
2023-03-14T19:27:54.319Z,99823.88
2023-03-14T19:30:23.635Z,99822.53
2023-03-14T19:32:51.937Z,99820.44
2023-03-14T19:35:20.196Z,99809.25
2023-03-14T19:37:48.236Z,99816.13
2023-03-14T19:40:16.291Z,99817.16
2023-03-14T19:42:44.379Z,99818.19
2023-03-14T19:45:13.125Z,99813.19
2023-03-14T19:47:42.440Z,99816.50
2023-03-14T19:50:11.704Z,99817.53
2023-03-14T19:52:43.888Z,99813.38
2023-03-14T19:55:12.811Z,99804.34
2023-03-14T19:57:41.116Z,99807.03
2023-03-14T20:00:17.270Z,99798.03
2023-03-14T20:02:47.202Z,99811.09
2023-03-14T20:05:15.265Z,99809.25
2023-03-14T20:07:44.535Z,99805.88
2023-03-14T20:10:16.092Z,99809.25
2023-03-14T20:12:44.119Z,99804.66
2023-03-14T20:15:18.314Z,99800.97
2023-03-14T20:17:48.281Z,99795.97
2023-03-14T20:20:17.221Z,99805.06
2023-03-14T20:22:45.495Z,99798.63
2023-03-14T20:25:16.570Z,99801.13
2023-03-14T20:27:44.501Z,99803.34
2023-03-14T20:30:14.862Z,99803.25
2023-03-14T20:32:43.820Z,99802.50
2023-03-14T20:35:23.309Z,99806.66
2023-03-14T20:37:53.114Z,99789.59
2023-03-14T20:40:23.481Z,99800.47
2023-03-14T20:42:51.488Z,99790.88
2023-03-14T20:45:19.753Z,99791.28
2023-03-14T20:47:47.665Z,99794.38
2023-03-14T20:50:16.969Z,99789.59
2023-03-14T20:52:45.351Z,99788.50
2023-03-14T20:55:13.469Z,99780.19
2023-03-14T20:57:41.434Z,99759.69
2023-03-14T21:00:10.717Z,99777.31
2023-03-14T21:02:38.633Z,99770.13
2023-03-14T21:05:07.614Z,99764.31
2023-03-14T21:07:41.556Z,99763.41
2023-03-14T21:10:11.571Z,99754.53
2023-03-14T21:12:39.987Z,99755.28
2023-03-14T21:15:09.691Z,99749.28
2023-03-14T21:17:39.737Z,99754.44
2023-03-14T21:20:10.308Z,99751.28
2023-03-14T21:22:39.754Z,99756.38
2023-03-14T21:25:08.399Z,99752.69
2023-03-14T21:27:39.615Z,99748.44
2023-03-14T21:30:09.628Z,99738.56
2023-03-14T21:32:37.731Z,99745.94
2023-03-14T21:35:05.989Z,99736.91
2023-03-14T21:37:33.978Z,99724.06
2023-03-14T21:40:03.958Z,99731.66
2023-03-14T21:42:32.513Z,99719.81
2023-03-14T21:45:01.280Z,99722.69
2023-03-14T21:47:29.278Z,99723.59
2023-03-14T21:49:57.246Z,99720.56
2023-03-14T21:52:25.459Z,99705.97
2023-03-14T21:54:53.448Z,99716.09
2023-03-14T21:57:30.185Z,99712.34
2023-03-14T21:59:58.385Z,99708.19
2023-03-14T22:02:26.448Z,99699.69
2023-03-14T22:04:54.698Z,99702.09
2023-03-14T22:07:22.634Z,99689.84
2023-03-14T22:09:50.563Z,99693.78
2023-03-14T22:12:19.679Z,99706.25
2023-03-14T22:14:49.858Z,99696.38
2023-03-14T22:17:20.421Z,99700.78
2023-03-14T22:19:48.357Z,99698.75
2023-03-14T22:22:16.320Z,99705.75
2023-03-14T22:24:44.410Z,99699.91
2023-03-14T22:27:13.315Z,99697.47
2023-03-14T22:29:41.441Z,99697.47
2023-03-14T22:32:12.369Z,99689.72
2023-03-14T22:34:40.418Z,99690.22
2023-03-14T22:37:09.151Z,99688.97
2023-03-14T22:39:37.217Z,99685.81
2023-03-14T22:42:05.398Z,99686.50
2023-03-14T22:44:33.623Z,99692.41
2023-03-14T22:47:01.792Z,99676.38
2023-03-14T22:49:32.196Z,99672.38
2023-03-14T22:52:00.630Z,99677.38
2023-03-14T22:54:28.627Z,99668.19
2023-03-14T22:56:56.609Z,99676.19
2023-03-14T22:59:24.504Z,99670.84
2023-03-14T23:01:52.468Z,99664.47
2023-03-14T23:04:20.379Z,99665.56
2023-03-14T23:06:49.683Z,99669.34
2023-03-14T23:09:17.630Z,99672.00
2023-03-14T23:11:45.998Z,99672.56
2023-03-14T23:14:13.953Z,99676.19
2023-03-14T23:16:41.902Z,99677.91
2023-03-14T23:19:11.128Z,99687.41
2023-03-14T23:21:39.125Z,99693.16
2023-03-14T23:24:09.460Z,99691.13
2023-03-14T23:26:37.368Z,99692.28
2023-03-14T23:29:06.521Z,99685.81
2023-03-14T23:31:34.975Z,99677.25
2023-03-14T23:34:03.395Z,99688.88
2023-03-14T23:36:31.681Z,99670.13
2023-03-14T23:38:59.581Z,99676.63
2023-03-14T23:41:28.890Z,99663.38
2023-03-14T23:43:58.128Z,99666.00
2023-03-14T23:46:26.185Z,99657.00
2023-03-14T23:48:55.092Z,99652.63
2023-03-14T23:51:23.251Z,99655.69
2023-03-14T23:53:51.381Z,99659.19
2023-03-14T23:56:19.359Z,99660.47
2023-03-14T23:58:48.668Z,99652.72
